createdAt,value
2022-12-27T00:06:51.008Z,8.89
2022-12-27T00:17:03.974Z,8.99
2022-12-27T00:27:17.034Z,8.92
2022-12-27T00:37:30.004Z,8.99
2022-12-27T00:47:56.037Z,8.92
2022-12-27T00:58:09.026Z,9.00
2022-12-27T01:08:22.041Z,9.15
2022-12-27T01:18:35.032Z,9.19
2022-12-27T01:28:48.072Z,9.18
2022-12-27T01:39:01.028Z,9.36
2022-12-27T01:49:15.105Z,9.35
2022-12-27T01:59:28.068Z,9.44
2022-12-27T02:09:41.094Z,9.42
2022-12-27T02:20:09.067Z,9.15
2022-12-27T02:30:22.114Z,8.93
2022-12-27T02:40:54.081Z,8.85
2022-12-27T02:51:53.131Z,8.80
2022-12-27T03:02:46.194Z,8.76
2022-12-27T03:13:30.137Z,8.77
2022-12-27T03:24:02.097Z,8.54
2022-12-27T03:34:36.155Z,8.55
2022-12-27T03:44:49.119Z,8.46
2022-12-27T03:55:09.177Z,8.36
2022-12-27T04:05:22.131Z,7.84
2022-12-27T04:15:53.219Z,7.37
2022-12-27T04:26:25.182Z,6.88
2022-12-27T04:36:38.206Z,6.63
2022-12-27T04:47:09.158Z,6.38
2022-12-27T04:57:29.174Z,6.30
2022-12-27T05:08:00.193Z,6.27
2022-12-27T05:18:13.197Z,6.17
2022-12-27T05:28:26.200Z,6.02
2022-12-27T05:38:39.215Z,5.89
2022-12-27T05:48:52.227Z,5.77
2022-12-27T05:59:12.280Z,5.66
2022-12-27T06:09:25.253Z,5.61
2022-12-27T06:19:38.210Z,5.53
2022-12-27T06:29:51.272Z,5.36
2022-12-27T06:40:04.256Z,5.25
2022-12-27T06:50:17.269Z,5.17
2022-12-27T07:00:30.329Z,5.17
2022-12-27T07:10:44.278Z,4.74
2022-12-27T07:20:57.269Z,4.39
2022-12-27T07:31:40.321Z,4.13
2022-12-27T07:41:53.280Z,4.07
2022-12-27T07:52:06.295Z,4.07
2022-12-27T08:02:25.446Z,3.98
2022-12-27T08:12:38.304Z,4.32
2022-12-27T08:22:51.293Z,4.76
2022-12-27T08:33:04.363Z,4.62
2022-12-27T08:43:18.336Z,7.39
2022-12-27T08:53:31.352Z,8.70
2022-12-27T09:03:44.329Z,9.70
2022-12-27T09:13:57.365Z,9.36
2022-12-27T09:24:10.315Z,9.13
2022-12-27T09:34:23.387Z,9.67
2022-12-27T09:44:46.375Z,9.61
2022-12-27T09:55:09.385Z,10.30
2022-12-27T10:05:35.435Z,9.85
2022-12-27T10:15:55.424Z,9.69
2022-12-27T10:26:21.447Z,10.58
2022-12-27T10:36:36.428Z,11.15
2022-12-27T10:46:50.529Z,10.69
2022-12-27T10:57:37.431Z,9.85
2022-12-27T11:07:51.434Z,10.04
2022-12-27T11:18:09.436Z,9.00
2022-12-27T11:28:42.424Z,9.05
2022-12-27T11:38:57.453Z,8.04
2022-12-27T11:49:11.437Z,7.91
2022-12-27T11:59:54.465Z,7.64
2022-12-27T12:10:19.496Z,8.00
2022-12-27T12:21:10.486Z,7.05
2022-12-27T12:32:02.500Z,7.21
2022-12-27T12:42:26.499Z,6.70
2022-12-27T12:52:55.452Z,7.01
2022-12-27T13:03:35.574Z,6.97
2022-12-27T13:14:14.532Z,6.76
2022-12-27T13:24:40.473Z,6.42
2022-12-27T13:35:14.975Z,6.28
2022-12-27T13:45:49.576Z,6.14
2022-12-27T13:56:52.289Z,6.08
2022-12-27T14:07:27.520Z,5.98
2022-12-27T14:17:46.604Z,5.81
2022-12-27T14:28:19.539Z,5.67
2022-12-27T14:38:50.584Z,5.57
2022-12-27T14:49:18.550Z,5.05
2022-12-27T15:00:10.593Z,5.06
2022-12-27T15:10:48.568Z,5.10
2022-12-27T15:21:13.615Z,4.89
2022-12-27T15:31:37.570Z,4.90
2022-12-27T15:42:33.116Z,4.84
2022-12-27T15:53:08.590Z,4.76
2022-12-27T16:03:42.665Z,4.73
2022-12-27T16:13:57.611Z,4.69
2022-12-27T16:24:14.661Z,4.53
2022-12-27T16:34:33.618Z,4.34
2022-12-27T16:44:59.667Z,4.33
2022-12-27T16:55:35.644Z,4.31
2022-12-27T17:06:21.592Z,6.75
2022-12-27T17:16:20.677Z,4.37
2022-12-27T17:26:44.714Z,4.25
2022-12-27T17:37:28.640Z,4.20
2022-12-27T17:48:17.652Z,4.17
2022-12-27T17:58:30.696Z,4.13
2022-12-27T18:08:43.690Z,4.02
2022-12-27T18:18:59.728Z,3.98
2022-12-27T18:29:13.678Z,3.98
2022-12-27T18:39:39.752Z,3.87
2022-12-27T18:49:52.703Z,3.95
2022-12-27T19:00:22.749Z,3.99
2022-12-27T19:10:37.709Z,3.88
2022-12-27T19:20:50.768Z,3.60
2022-12-27T19:31:25.813Z,3.35
2022-12-27T19:41:39.796Z,3.17
2022-12-27T19:51:52.752Z,3.05
2022-12-27T20:02:05.915Z,2.96
2022-12-27T20:12:18.779Z,2.84
2022-12-27T20:22:31.800Z,2.82
2022-12-27T20:32:44.766Z,2.81
2022-12-27T20:42:57.842Z,2.73
2022-12-27T20:53:10.797Z,2.91
2022-12-27T21:03:30.859Z,2.99
2022-12-27T21:13:44.771Z,3.12
2022-12-27T21:23:57.984Z,3.27
2022-12-27T21:34:11.849Z,3.31
2022-12-27T21:44:24.811Z,3.51
2022-12-27T21:54:37.967Z,3.50
2022-12-27T22:04:50.846Z,3.54
2022-12-27T22:15:03.849Z,3.42
2022-12-27T22:25:17.850Z,3.44
2022-12-27T22:35:30.860Z,3.40
2022-12-27T22:45:47.599Z,3.47
2022-12-27T22:56:09.885Z,3.40
2022-12-27T23:06:22.875Z,3.19
2022-12-27T23:16:35.891Z,3.93
2022-12-27T23:26:48.891Z,3.26
2022-12-27T23:37:00.893Z,3.07
2022-12-27T23:47:13.895Z,3.21
2022-12-27T23:57:33.928Z,3.29
